sensor_id;sensor_type;location;lat;lon;timestamp;pressure;altitude;pressure_sealevel;temperature;humidity
41264;BME280;26998;48.714;9.414;2023-04-22T00:01:57;99143.53;;;10.51;100.00
41264;BME280;26998;48.714;9.414;2023-04-22T00:04:23;99158.09;;;10.49;100.00
41264;BME280;26998;48.714;9.414;2023-04-22T00:06:50;99156.44;;;10.48;100.00
41264;BME280;26998;48.714;9.414;2023-04-22T00:09:16;99160.31;;;10.45;100.00
41264;BME280;26998;48.714;9.414;2023-04-22T00:11:43;99161.50;;;10.43;100.00
41264;BME280;26998;48.714;9.414;2023-04-22T00:14:09;99169.09;;;10.39;100.00
41264;BME280;26998;48.714;9.414;2023-04-22T00:16:36;99183.47;;;10.38;100.00
41264;BME280;26998;48.714;9.414;2023-04-22T00:19:03;99192.47;;;10.37;100.00
41264;BME280;26998;48.714;9.414;2023-04-22T00:21:30;99179.06;;;10.30;100.00
41264;BME280;26998;48.714;9.414;2023-04-22T00:23:57;99179.59;;;10.26;100.00
41264;BME280;26998;48.714;9.414;2023-04-22T00:26:24;99176.47;;;10.22;100.00
41264;BME280;26998;48.714;9.414;2023-04-22T00:28:51;99182.81;;;10.21;100.00
41264;BME280;26998;48.714;9.414;2023-04-22T00:31:19;99183.19;;;10.18;100.00
41264;BME280;26998;48.714;9.414;2023-04-22T00:33:45;99179.91;;;10.16;100.00
41264;BME280;26998;48.714;9.414;2023-04-22T00:36:12;99173.09;;;10.13;100.00
41264;BME280;26998;48.714;9.414;2023-04-22T00:38:39;99165.25;;;10.12;100.00
41264;BME280;26998;48.714;9.414;2023-04-22T00:41:06;99168.13;;;10.10;100.00
41264;BME280;26998;48.714;9.414;2023-04-22T00:43:33;99173.25;;;10.12;100.00
41264;BME280;26998;48.714;9.414;2023-04-22T00:46:00;99168.94;;;10.11;100.00
41264;BME280;26998;48.714;9.414;2023-04-22T00:48:27;99178.16;;;10.08;100.00
41264;BME280;26998;48.714;9.414;2023-04-22T00:50:54;99182.66;;;10.08;100.00
41264;BME280;26998;48.714;9.414;2023-04-22T00:53:21;99185.72;;;10.05;100.00
41264;BME280;26998;48.714;9.414;2023-04-22T00:55:49;99186.72;;;10.04;100.00
41264;BME280;26998;48.714;9.414;2023-04-22T00:58:16;99186.09;;;10.02;100.00
41264;BME280;26998;48.714;9.414;2023-04-22T01:00:44;99196.97;;;10.00;100.00
41264;BME280;26998;48.714;9.414;2023-04-22T01:03:11;99204.50;;;9.97;100.00
41264;BME280;26998;48.714;9.414;2023-04-22T01:05:38;99208.19;;;9.95;100.00
41264;BME280;26998;48.714;9.414;2023-04-22T01:08:08;99202.03;;;9.95;100.00
41264;BME280;26998;48.714;9.414;2023-04-22T01:10:34;99202.03;;;9.95;100.00
41264;BME280;26998;48.714;9.414;2023-04-22T01:13:01;99200.38;;;9.94;100.00
41264;BME280;26998;48.714;9.414;2023-04-22T01:15:27;99196.84;;;9.93;100.00
41264;BME280;26998;48.714;9.414;2023-04-22T01:17:55;99196.84;;;9.93;100.00
41264;BME280;26998;48.714;9.414;2023-04-22T01:20:21;99195.03;;;9.94;100.00
41264;BME280;26998;48.714;9.414;2023-04-22T01:22:49;99192.53;;;9.92;100.00
41264;BME280;26998;48.714;9.414;2023-04-22T01:25:15;99189.22;;;9.90;100.00
41264;BME280;26998;48.714;9.414;2023-04-22T01:27:42;99196.41;;;9.90;100.00
41264;BME280;26998;48.714;9.414;2023-04-22T01:30:09;99191.25;;;9.88;100.00
41264;BME280;26998;48.714;9.414;2023-04-22T01:32:38;99192.25;;;9.87;100.00
41264;BME280;26998;48.714;9.414;2023-04-22T01:35:05;99199.44;;;9.87;100.00
41264;BME280;26998;48.714;9.414;2023-04-22T01:37:31;99207.06;;;9.90;100.00
41264;BME280;26998;48.714;9.414;2023-04-22T01:39:58;99203.94;;;9.86;100.00
41264;BME280;26998;48.714;9.414;2023-04-22T01:42:25;99202.47;;;9.84;100.00
41264;BME280;26998;48.714;9.414;2023-04-22T01:44:52;99198.16;;;9.83;100.00
41264;BME280;26998;48.714;9.414;2023-04-22T01:47:18;99201.03;;;9.81;100.00
41264;BME280;26998;48.714;9.414;2023-04-22T01:49:45;99200.84;;;9.83;100.00
41264;BME280;26998;48.714;9.414;2023-04-22T01:52:12;99197.13;;;9.84;100.00
41264;BME280;26998;48.714;9.414;2023-04-22T01:54:38;99199.44;;;9.87;100.00
41264;BME280;26998;48.714;9.414;2023-04-22T01:57:09;99188.75;;;9.87;100.00
41264;BME280;26998;48.714;9.414;2023-04-22T01:59:36;99190.69;;;9.93;100.00
41264;BME280;26998;48.714;9.414;2023-04-22T02:02:02;99189.50;;;9.95;100.00
41264;BME280;26998;48.714;9.414;2023-04-22T02:04:29;99186.66;;;9.97;100.00
41264;BME280;26998;48.714;9.414;2023-04-22T02:06:55;99183.97;;;9.97;100.00
41264;BME280;26998;48.714;9.414;2023-04-22T02:09:22;99181.41;;;9.89;100.00
41264;BME280;26998;48.714;9.414;2023-04-22T02:11:51;99176.44;;;9.86;100.00
41264;BME280;26998;48.714;9.414;2023-04-22T02:14:18;99173.75;;;9.86;100.00
41264;BME280;26998;48.714;9.414;2023-04-22T02:16:45;99173.13;;;9.84;100.00
41264;BME280;26998;48.714;9.414;2023-04-22T02:19:11;99175.53;;;9.79;100.00
41264;BME280;26998;48.714;9.414;2023-04-22T02:21:38;99184.91;;;9.75;100.00
41264;BME280;26998;48.714;9.414;2023-04-22T02:24:04;99180.13;;;9.70;100.00
41264;BME280;26998;48.714;9.414;2023-04-22T02:26:31;99187.03;;;9.64;100.00
41264;BME280;26998;48.714;9.414;2023-04-22T02:28:57;99192.56;;;9.63;100.00
41264;BME280;26998;48.714;9.414;2023-04-22T02:31:24;99202.75;;;9.59;100.00
41264;BME280;26998;48.714;9.414;2023-04-22T02:33:50;99217.31;;;9.57;100.00
41264;BME280;26998;48.714;9.414;2023-04-22T02:36:17;99221.53;;;9.51;100.00
41264;BME280;26998;48.714;9.414;2023-04-22T02:38:43;99228.59;;;9.44;100.00
41264;BME280;26998;48.714;9.414;2023-04-22T02:41:10;99234.47;;;9.39;100.00
41264;BME280;26998;48.714;9.414;2023-04-22T02:43:36;99251.66;;;9.37;100.00
41264;BME280;26998;48.714;9.414;2023-04-22T02:46:02;99257.72;;;9.31;100.00
41264;BME280;26998;48.714;9.414;2023-04-22T02:48:29;99269.09;;;9.24;100.00
41264;BME280;26998;48.714;9.414;2023-04-22T02:50:55;99274.78;;;9.21;100.00
41264;BME280;26998;48.714;9.414;2023-04-22T02:53:22;99282.16;;;9.19;100.00
41264;BME280;26998;48.714;9.414;2023-04-22T02:55:49;99299.34;;;9.17;100.00
41264;BME280;26998;48.714;9.414;2023-04-22T02:58:15;99305.03;;;9.14;100.00
41264;BME280;26998;48.714;9.414;2023-04-22T03:00:41;99309.69;;;9.12;100.00
41264;BME280;26998;48.714;9.414;2023-04-22T03:03:08;99314.41;;;9.10;100.00
41264;BME280;26998;48.714;9.414;2023-04-22T03:05:35;99315.75;;;9.06;100.00
41264;BME280;26998;48.714;9.414;2023-04-22T03:08:01;99311.44;;;9.05;100.00
41264;BME280;26998;48.714;9.414;2023-04-22T03:10:27;99329.91;;;9.06;100.00
41264;BME280;26998;48.714;9.414;2023-04-22T03:12:54;99331.09;;;9.04;100.00
41264;BME280;26998;48.714;9.414;2023-04-22T03:15:20;99329.44;;;9.02;100.00
41264;BME280;26998;48.714;9.414;2023-04-22T03:17:47;98487.22;;;9.01;100.00
41264;BME280;26998;48.714;9.414;2023-04-22T03:20:14;98474.28;;;8.98;100.00
41264;BME280;26998;48.714;9.414;2023-04-22T03:22:40;98469.78;;;8.98;100.00
41264;BME280;26998;48.714;9.414;2023-04-22T03:25:09;98472.63;;;8.97;100.00
41264;BME280;26998;48.714;9.414;2023-04-22T03:27:35;98471.38;;;8.93;100.00
41264;BME280;26998;48.714;9.414;2023-04-22T03:30:03;98464.00;;;8.88;100.00
41264;BME280;26998;48.714;9.414;2023-04-22T03:32:30;98460.44;;;8.81;100.00
41264;BME280;26998;48.714;9.414;2023-04-22T03:34:56;98454.91;;;8.76;100.00
41264;BME280;26998;48.714;9.414;2023-04-22T03:37:23;98460.19;;;8.69;100.00
41264;BME280;26998;48.714;9.414;2023-04-22T03:39:50;98450.91;;;8.65;100.00
41264;BME280;26998;48.714;9.414;2023-04-22T03:42:16;98440.22;;;8.59;100.00
41264;BME280;26998;48.714;9.414;2023-04-22T03:44:42;98428.13;;;8.56;100.00
41264;BME280;26998;48.714;9.414;2023-04-22T03:47:09;98429.94;;;8.49;100.00
41264;BME280;26998;48.714;9.414;2023-04-22T03:49:36;98424.16;;;8.45;100.00
41264;BME280;26998;48.714;9.414;2023-04-22T03:52:03;98419.78;;;8.38;100.00
41264;BME280;26998;48.714;9.414;2023-04-22T03:54:30;98413.19;;;8.33;100.00
41264;BME280;26998;48.714;9.414;2023-04-22T03:56:56;98400.78;;;8.41;100.00
41264;BME280;26998;48.714;9.414;2023-04-22T03:59:23;98410.69;;;8.53;100.00
41264;BME280;26998;48.714;9.414;2023-04-22T04:01:50;98413.28;;;8.40;100.00
41264;BME280;26998;48.714;9.414;2023-04-22T04:04:17;98411.03;;;8.44;100.00
41264;BME280;26998;48.714;9.414;2023-04-22T04:06:44;98416.25;;;8.30;100.00
41264;BME280;26998;48.714;9.414;2023-04-22T04:09:10;98409.28;;;8.29;100.00
41264;BME280;26998;48.714;9.414;2023-04-22T04:11:36;98403.16;;;8.29;100.00
41264;BME280;26998;48.714;9.414;2023-04-22T04:14:03;98402.28;;;8.28;100.00
41264;BME280;26998;48.714;9.414;2023-04-22T04:16:29;98399.03;;;8.26;100.00
41264;BME280;26998;48.714;9.414;2023-04-22T04:18:59;98400.41;;;8.22;100.00
41264;BME280;26998;48.714;9.414;2023-04-22T04:21:26;98404.31;;;8.20;100.00
41264;BME280;26998;48.714;9.414;2023-04-22T04:23:52;98403.28;;;8.21;100.00
41264;BME280;26998;48.714;9.414;2023-04-22T04:26:18;98404.09;;;8.21;100.00
41264;BME280;26998;48.714;9.414;2023-04-22T04:28:45;98401.06;;;8.24;100.00
41264;BME280;26998;48.714;9.414;2023-04-22T04:31:12;98400.88;;;8.26;100.00
41264;BME280;26998;48.714;9.414;2023-04-22T04:33:38;98401.69;;;8.26;100.00
41264;BME280;26998;48.714;9.414;2023-04-22T04:36:05;98399.59;;;8.22;100.00
41264;BME280;26998;48.714;9.414;2023-04-22T04:38:31;98401.81;;;8.18;100.00
41264;BME280;26998;48.714;9.414;2023-04-22T04:40:58;98394.22;;;8.15;100.00
41264;BME280;26998;48.714;9.414;2023-04-22T04:43:24;98396.66;;;8.10;100.00
41264;BME280;26998;48.714;9.414;2023-04-22T04:45:51;98394.00;;;8.10;100.00
41264;BME280;26998;48.714;9.414;2023-04-22T04:48:18;98389.69;;;8.09;100.00
41264;BME280;26998;48.714;9.414;2023-04-22T04:50:45;98390.69;;;8.08;100.00
41264;BME280;26998;48.714;9.414;2023-04-22T04:53:11;98404.00;;;8.08;100.00
41264;BME280;26998;48.714;9.414;2023-04-22T04:55:38;98407.31;;;8.10;100.00
41264;BME280;26998;48.714;9.414;2023-04-22T04:58:04;98413.44;;;8.10;100.00
41264;BME280;26998;48.714;9.414;2023-04-22T05:00:31;98410.41;;;8.14;100.00
41264;BME280;26998;48.714;9.414;2023-04-22T05:02:57;98421.28;;;8.19;100.00
41264;BME280;26998;48.714;9.414;2023-04-22T05:05:24;98416.78;;;8.19;100.00
41264;BME280;26998;48.714;9.414;2023-04-22T05:07:51;98428.06;;;8.21;100.00
41264;BME280;26998;48.714;9.414;2023-04-22T05:10:18;98418.06;;;8.23;100.00
41264;BME280;26998;48.714;9.414;2023-04-22T05:12:44;98430.97;;;8.26;100.00
41264;BME280;26998;48.714;9.414;2023-04-22T05:15:11;98433.69;;;8.33;100.00
41264;BME280;26998;48.714;9.414;2023-04-22T05:17:37;98443.09;;;8.29;100.00
41264;BME280;26998;48.714;9.414;2023-04-22T05:20:04;98438.38;;;8.31;100.00
41264;BME280;26998;48.714;9.414;2023-04-22T05:22:31;98448.84;;;8.32;100.00
41264;BME280;26998;48.714;9.414;2023-04-22T05:24:57;98455.88;;;8.40;100.00
41264;BME280;26998;48.714;9.414;2023-04-22T05:27:24;98461.25;;;8.47;100.00
41264;BME280;26998;48.714;9.414;2023-04-22T05:29:52;98463.34;;;8.51;100.00
41264;BME280;26998;48.714;9.414;2023-04-22T05:32:19;98463.56;;;8.56;100.00
41264;BME280;26998;48.714;9.414;2023-04-22T05:34:46;98463.00;;;8.61;100.00
41264;BME280;26998;48.714;9.414;2023-04-22T05:37:12;98463.81;;;8.62;100.00
41264;BME280;26998;48.714;9.414;2023-04-22T05:39:39;98465.28;;;8.64;100.00
41264;BME280;26998;48.714;9.414;2023-04-22T05:42:06;98474.50;;;8.68;100.00
41264;BME280;26998;48.714;9.414;2023-04-22T05:44:32;98474.34;;;8.70;100.00
41264;BME280;26998;48.714;9.414;2023-04-22T05:46:59;98478.06;;;8.75;100.00
41264;BME280;26998;48.714;9.414;2023-04-22T05:49:26;98486.88;;;8.76;100.00
41264;BME280;26998;48.714;9.414;2023-04-22T05:51:52;98488.97;;;8.87;100.00
41264;BME280;26998;48.714;9.414;2023-04-22T05:54:22;98506.16;;;8.85;100.00
41264;BME280;26998;48.714;9.414;2023-04-22T05:56:51;98517.31;;;8.95;100.00
41264;BME280;26998;48.714;9.414;2023-04-22T05:59:20;98534.59;;;9.06;100.00
41264;BME280;26998;48.714;9.414;2023-04-22T06:01:47;98544.69;;;9.10;100.00
41264;BME280;26998;48.714;9.414;2023-04-22T06:04:15;98564.25;;;9.24;100.00
41264;BME280;26998;48.714;9.414;2023-04-22T06:06:45;98590.94;;;9.31;100.00
41264;BME280;26998;48.714;9.414;2023-04-22T06:09:11;98620.50;;;9.29;100.00
41264;BME280;26998;48.714;9.414;2023-04-22T06:11:39;98638.94;;;9.31;100.00
41264;BME280;26998;48.714;9.414;2023-04-22T06:14:06;98640.91;;;9.50;100.00
41264;BME280;26998;48.714;9.414;2023-04-22T06:16:32;98656.38;;;9.61;100.00
41264;BME280;26998;48.714;9.414;2023-04-22T06:19:01;98667.38;;;9.80;100.00
41264;BME280;26998;48.714;9.414;2023-04-22T06:21:29;98682.44;;;10.42;100.00
41264;BME280;26998;48.714;9.414;2023-04-22T06:23:55;98722.59;;;10.69;100.00
41264;BME280;26998;48.714;9.414;2023-04-22T06:26:22;98728.41;;;10.99;100.00
41264;BME280;26998;48.714;9.414;2023-04-22T06:28:48;98715.03;;;11.72;100.00
41264;BME280;26998;48.714;9.414;2023-04-22T06:31:15;98640.53;;;12.14;100.00
41264;BME280;26998;48.714;9.414;2023-04-22T06:33:45;98593.63;;;12.36;100.00
41264;BME280;26998;48.714;9.414;2023-04-22T06:36:12;98530.88;;;12.51;100.00
41264;BME280;26998;48.714;9.414;2023-04-22T06:38:39;98536.91;;;12.89;100.00
41264;BME280;26998;48.714;9.414;2023-04-22T06:41:05;98493.75;;;12.73;100.00
41264;BME280;26998;48.714;9.414;2023-04-22T06:43:32;98478.22;;;12.81;100.00
41264;BME280;26998;48.714;9.414;2023-04-22T06:45:58;98456.78;;;13.36;100.00
41264;BME280;26998;48.714;9.414;2023-04-22T06:48:25;98436.47;;;13.59;100.00
41264;BME280;26998;48.714;9.414;2023-04-22T06:50:55;98431.41;;;12.77;100.00
41264;BME280;26998;48.714;9.414;2023-04-22T06:53:22;98487.75;;;12.52;100.00
41264;BME280;26998;48.714;9.414;2023-04-22T06:55:48;98510.28;;;12.19;100.00
41264;BME280;26998;48.714;9.414;2023-04-22T06:58:18;98541.94;;;11.97;100.00
41264;BME280;26998;48.714;9.414;2023-04-22T07:00:44;98553.81;;;12.08;100.00
41264;BME280;26998;48.714;9.414;2023-04-22T07:03:12;98564.66;;;11.88;100.00
41264;BME280;26998;48.714;9.414;2023-04-22T07:05:38;98592.84;;;11.84;100.00
41264;BME280;26998;48.714;9.414;2023-04-22T07:08:05;98597.53;;;12.09;100.00
41264;BME280;26998;48.714;9.414;2023-04-22T07:10:32;98558.72;;;12.50;100.00
41264;BME280;26998;48.714;9.414;2023-04-22T07:12:58;98514.59;;;12.70;100.00
41264;BME280;26998;48.714;9.414;2023-04-22T07:15:25;98499.59;;;12.88;100.00
41264;BME280;26998;48.714;9.414;2023-04-22T07:17:53;98487.44;;;12.85;100.00
41264;BME280;26998;48.714;9.414;2023-04-22T07:20:19;98493.94;;;12.78;100.00
41264;BME280;26998;48.714;9.414;2023-04-22T07:22:46;98491.50;;;13.13;100.00
41264;BME280;26998;48.714;9.414;2023-04-22T07:25:13;98500.88;;;13.04;100.00
41264;BME280;26998;48.714;9.414;2023-04-22T07:27:39;98473.16;;;12.91;100.00
41264;BME280;26998;48.714;9.414;2023-04-22T07:30:06;98474.06;;;13.04;100.00
41264;BME280;26998;48.714;9.414;2023-04-22T07:32:34;98459.81;;;13.58;100.00
41264;BME280;26998;48.714;9.414;2023-04-22T07:35:01;98437.78;;;13.68;100.00
41264;BME280;26998;48.714;9.414;2023-04-22T07:37:28;98429.22;;;13.59;100.00
41264;BME280;26998;48.714;9.414;2023-04-22T07:40:04;98406.88;;;13.77;100.00
41264;BME280;26998;48.714;9.414;2023-04-22T07:42:30;98361.78;;;13.79;100.00
41264;BME280;26998;48.714;9.414;2023-04-22T07:44:57;98381.16;;;13.70;100.00
41264;BME280;26998;48.714;9.414;2023-04-22T07:47:23;98349.06;;;13.75;100.00
41264;BME280;26998;48.714;9.414;2023-04-22T07:49:50;98334.03;;;14.21;100.00
41264;BME280;26998;48.714;9.414;2023-04-22T07:52:16;98303.94;;;14.47;100.00
41264;BME280;26998;48.714;9.414;2023-04-22T07:54:43;98287.19;;;14.81;100.00
41264;BME280;26998;48.714;9.414;2023-04-22T07:57:09;98291.00;;;14.96;100.00
41264;BME280;26998;48.714;9.414;2023-04-22T07:59:36;98269.91;;;15.05;100.00
41264;BME280;26998;48.714;9.414;2023-04-22T08:02:03;98251.94;;;15.11;100.00
41264;BME280;26998;48.714;9.414;2023-04-22T08:04:30;98262.34;;;15.19;100.00
41264;BME280;26998;48.714;9.414;2023-04-22T08:06:56;98259.25;;;15.44;100.00
41264;BME280;26998;48.714;9.414;2023-04-22T08:09:23;98259.97;;;15.68;100.00
41264;BME280;26998;48.714;9.414;2023-04-22T08:11:51;98227.63;;;16.07;100.00
41264;BME280;26998;48.714;9.414;2023-04-22T08:14:17;98215.78;;;15.86;100.00
41264;BME280;26998;48.714;9.414;2023-04-22T08:16:44;98213.16;;;16.13;100.00
41264;BME280;26998;48.714;9.414;2023-04-22T08:19:11;98206.72;;;16.14;100.00
41264;BME280;26998;48.714;9.414;2023-04-22T08:21:37;98209.47;;;16.19;100.00
41264;BME280;26998;48.714;9.414;2023-04-22T08:24:05;98179.47;;;16.32;100.00
41264;BME280;26998;48.714;9.414;2023-04-22T08:26:31;98192.25;;;16.69;100.00
41264;BME280;26998;48.714;9.414;2023-04-22T08:28:57;98181.97;;;16.39;100.00
41264;BME280;26998;48.714;9.414;2023-04-22T08:31:24;98195.56;;;16.05;100.00
41264;BME280;26998;48.714;9.414;2023-04-22T08:33:51;98177.56;;;16.33;100.00
41264;BME280;26998;48.714;9.414;2023-04-22T08:36:17;98200.84;;;16.17;100.00
41264;BME280;26998;48.714;9.414;2023-04-22T08:38:44;98212.16;;;15.63;100.00
41264;BME280;26998;48.714;9.414;2023-04-22T08:41:14;98218.22;;;15.87;100.00
41264;BME280;26998;48.714;9.414;2023-04-22T08:43:41;98205.72;;;16.20;100.00
41264;BME280;26998;48.714;9.414;2023-04-22T08:46:08;98207.97;;;16.28;100.00
41264;BME280;26998;48.714;9.414;2023-04-22T08:48:35;98188.22;;;16.23;100.00
41264;BME280;26998;48.714;9.414;2023-04-22T08:51:02;98180.78;;;16.57;100.00
41264;BME280;26998;48.714;9.414;2023-04-22T08:53:29;98178.44;;;16.60;100.00
41264;BME280;26998;48.714;9.414;2023-04-22T08:55:57;98180.66;;;16.69;100.00
41264;BME280;26998;48.714;9.414;2023-04-22T08:58:23;98166.91;;;16.97;100.00
41264;BME280;26998;48.714;9.414;2023-04-22T09:00:50;98155.31;;;17.29;100.00
41264;BME280;26998;48.714;9.414;2023-04-22T09:03:17;98154.50;;;16.96;100.00
41264;BME280;26998;48.714;9.414;2023-04-22T09:05:45;98142.69;;;16.48;100.00
41264;BME280;26998;48.714;9.414;2023-04-22T09:08:13;98148.22;;;16.36;100.00
41264;BME280;26998;48.714;9.414;2023-04-22T09:10:40;98149.56;;;16.88;100.00
41264;BME280;26998;48.714;9.414;2023-04-22T09:13:06;98136.75;;;17.05;100.00
41264;BME280;26998;48.714;9.414;2023-04-22T09:15:33;98133.72;;;17.71;100.00
41264;BME280;26998;48.714;9.414;2023-04-22T09:18:01;98129.25;;;17.92;96.02
41264;BME280;26998;48.714;9.414;2023-04-22T09:20:29;98114.59;;;18.61;91.47
41264;BME280;26998;48.714;9.414;2023-04-22T09:22:56;98107.63;;;19.17;86.61
41264;BME280;26998;48.714;9.414;2023-04-22T09:25:27;98112.22;;;19.21;81.97
41264;BME280;26998;48.714;9.414;2023-04-22T09:27:57;98104.91;;;19.11;78.80
41264;BME280;26998;48.714;9.414;2023-04-22T09:30:27;98113.84;;;19.12;68.33
41264;BME280;26998;48.714;9.414;2023-04-22T09:32:55;98113.00;;;19.47;69.80
41264;BME280;26998;48.714;9.414;2023-04-22T09:35:30;98111.69;;;19.19;65.15
41264;BME280;26998;48.714;9.414;2023-04-22T09:37:58;98111.94;;;19.23;60.90
41264;BME280;26998;48.714;9.414;2023-04-22T09:40:26;98121.09;;;18.65;58.84
41264;BME280;26998;48.714;9.414;2023-04-22T09:42:54;98114.03;;;18.59;63.99
41264;BME280;26998;48.714;9.414;2023-04-22T09:45:36;98111.16;;;19.07;73.93
41264;BME280;26998;48.714;9.414;2023-04-22T09:48:07;98101.63;;;19.45;69.55
41264;BME280;26998;48.714;9.414;2023-04-22T09:50:34;98104.59;;;19.44;65.62
41264;BME280;26998;48.714;9.414;2023-04-22T09:53:03;98092.91;;;19.64;64.01
41264;BME280;26998;48.714;9.414;2023-04-22T09:55:35;98087.00;;;19.36;65.34
41264;BME280;26998;48.714;9.414;2023-04-22T09:58:10;98099.97;;;19.59;63.97
41264;BME280;26998;48.714;9.414;2023-04-22T10:00:44;98097.47;;;19.89;64.24
41264;BME280;26998;48.714;9.414;2023-04-22T10:03:11;98099.13;;;19.84;60.56
41264;BME280;26998;48.714;9.414;2023-04-22T10:05:38;98090.25;;;20.23;57.04
41264;BME280;26998;48.714;9.414;2023-04-22T10:08:05;98091.75;;;19.95;54.65
41264;BME280;26998;48.714;9.414;2023-04-22T10:10:33;98088.91;;;20.21;61.67
41264;BME280;26998;48.714;9.414;2023-04-22T10:13:00;98088.63;;;20.22;54.18
41264;BME280;26998;48.714;9.414;2023-04-22T10:15:32;98086.34;;;20.40;56.54
41264;BME280;26998;48.714;9.414;2023-04-22T10:18:00;98083.56;;;20.60;54.41
41264;BME280;26998;48.714;9.414;2023-04-22T10:20:28;98076.44;;;20.69;55.92
41264;BME280;26998;48.714;9.414;2023-04-22T10:22:56;98079.06;;;21.09;56.68
41264;BME280;26998;48.714;9.414;2023-04-22T10:25:24;98075.53;;;21.13;58.92
41264;BME280;26998;48.714;9.414;2023-04-22T10:30:30;98076.75;;;21.26;52.00
41264;BME280;26998;48.714;9.414;2023-04-22T10:36:07;98072.94;;;21.80;52.36
41264;BME280;26998;48.714;9.414;2023-04-22T10:41:01;98066.16;;;22.02;54.06
41264;BME280;26998;48.714;9.414;2023-04-22T10:43:47;98069.59;;;21.88;55.35
41264;BME280;26998;48.714;9.414;2023-04-22T10:49:08;98063.34;;;21.88;50.76
41264;BME280;26998;48.714;9.414;2023-04-22T10:59:31;98039.03;;;21.97;49.67
41264;BME280;26998;48.714;9.414;2023-04-22T11:02:05;98034.78;;;22.47;46.18
41264;BME280;26998;48.714;9.414;2023-04-22T11:04:32;98032.66;;;22.44;43.42
41264;BME280;26998;48.714;9.414;2023-04-22T11:10:31;98046.03;;;22.92;40.56
41264;BME280;26998;48.714;9.414;2023-04-22T11:15:04;98047.22;;;23.05;39.32
41264;BME280;26998;48.714;9.414;2023-04-22T11:17:30;98054.03;;;23.21;35.61
41264;BME280;26998;48.714;9.414;2023-04-22T11:19:57;98049.09;;;22.91;34.01
41264;BME280;26998;48.714;9.414;2023-04-22T11:22:24;98060.75;;;22.21;37.25
41264;BME280;26998;48.714;9.414;2023-04-22T11:24:57;98053.09;;;22.60;37.24
41264;BME280;26998;48.714;9.414;2023-04-22T11:27:24;98053.69;;;22.57;37.89
41264;BME280;26998;48.714;9.414;2023-04-22T11:32:36;98038.66;;;22.03;40.79
41264;BME280;26998;48.714;9.414;2023-04-22T11:35:03;98047.19;;;21.97;37.46
41264;BME280;26998;48.714;9.414;2023-04-22T11:37:42;98040.91;;;22.39;37.93
41264;BME280;26998;48.714;9.414;2023-04-22T11:40:10;98041.47;;;22.36;35.53
41264;BME280;26998;48.714;9.414;2023-04-22T11:42:40;98028.75;;;22.50;32.92
41264;BME280;26998;48.714;9.414;2023-04-22T11:45:07;98036.63;;;23.03;33.66
41264;BME280;26998;48.714;9.414;2023-04-22T11:47:34;98031.91;;;23.23;33.54
41264;BME280;26998;48.714;9.414;2023-04-22T11:50:04;98036.16;;;23.29;30.83
41264;BME280;26998;48.714;9.414;2023-04-22T11:52:56;98039.72;;;23.57;31.33
41264;BME280;26998;48.714;9.414;2023-04-22T11:55:30;98037.59;;;23.40;33.01
41264;BME280;26998;48.714;9.414;2023-04-22T12:00:46;98044.22;;;23.20;32.38
41264;BME280;26998;48.714;9.414;2023-04-22T12:03:27;98040.44;;;23.49;34.41
41264;BME280;26998;48.714;9.414;2023-04-22T12:05:57;98040.44;;;23.63;32.92
41264;BME280;26998;48.714;9.414;2023-04-22T12:08:35;98036.00;;;23.94;33.54
41264;BME280;26998;48.714;9.414;2023-04-22T12:11:07;98026.69;;;23.95;33.12
41264;BME280;26998;48.714;9.414;2023-04-22T12:16:05;98023.16;;;22.93;35.37
41264;BME280;26998;48.714;9.414;2023-04-22T12:18:37;98021.78;;;22.77;37.04
41264;BME280;26998;48.714;9.414;2023-04-22T12:21:08;98028.88;;;23.11;35.18
41264;BME280;26998;48.714;9.414;2023-04-22T12:26:15;98022.41;;;23.20;35.50
41264;BME280;26998;48.714;9.414;2023-04-22T12:28:43;98015.06;;;23.21;35.92
41264;BME280;26998;48.714;9.414;2023-04-22T12:31:11;98010.31;;;23.54;34.00
41264;BME280;26998;48.714;9.414;2023-04-22T12:33:38;98005.50;;;23.65;32.45
41264;BME280;26998;48.714;9.414;2023-04-22T12:36:05;98019.00;;;23.97;31.96
41264;BME280;26998;48.714;9.414;2023-04-22T12:38:32;98015.53;;;24.19;31.69
41264;BME280;26998;48.714;9.414;2023-04-22T12:41:00;98016.50;;;24.37;30.66
41264;BME280;26998;48.714;9.414;2023-04-22T12:43:27;98011.53;;;23.89;30.43
41264;BME280;26998;48.714;9.414;2023-04-22T12:45:53;98019.31;;;23.68;30.80
41264;BME280;26998;48.714;9.414;2023-04-22T12:48:20;98017.63;;;23.59;30.79
41264;BME280;26998;48.714;9.414;2023-04-22T12:50:46;98018.44;;;23.87;31.50
41264;BME280;26998;48.714;9.414;2023-04-22T12:53:13;98012.13;;;24.50;31.16
41264;BME280;26998;48.714;9.414;2023-04-22T12:55:40;98013.91;;;25.00;30.77
41264;BME280;26998;48.714;9.414;2023-04-22T12:58:08;98015.50;;;25.01;30.53
41264;BME280;26998;48.714;9.414;2023-04-22T13:00:35;98009.91;;;25.06;29.91
41264;BME280;26998;48.714;9.414;2023-04-22T13:03:02;98019.25;;;25.05;30.46
41264;BME280;26998;48.714;9.414;2023-04-22T13:05:28;98016.06;;;25.11;31.09
41264;BME280;26998;48.714;9.414;2023-04-22T13:07:55;98013.94;;;24.77;31.00
41264;BME280;26998;48.714;9.414;2023-04-22T13:10:32;98012.44;;;24.49;32.62
41264;BME280;26998;48.714;9.414;2023-04-22T13:12:59;98004.63;;;24.56;33.14
41264;BME280;26998;48.714;9.414;2023-04-22T13:15:42;98011.09;;;24.10;32.02
41264;BME280;26998;48.714;9.414;2023-04-22T13:18:09;98009.50;;;23.95;32.70
41264;BME280;26998;48.714;9.414;2023-04-22T13:20:35;98005.56;;;23.32;32.95
41264;BME280;26998;48.714;9.414;2023-04-22T13:23:02;98013.75;;;23.60;33.06
41264;BME280;26998;48.714;9.414;2023-04-22T13:25:28;98003.47;;;23.57;32.35
41264;BME280;26998;48.714;9.414;2023-04-22T13:27:55;97992.53;;;23.29;33.09
41264;BME280;26998;48.714;9.414;2023-04-22T13:30:21;97999.06;;;23.00;34.15
41264;BME280;26998;48.714;9.414;2023-04-22T13:32:48;97980.88;;;22.96;35.31
41264;BME280;26998;48.714;9.414;2023-04-22T13:35:15;97985.78;;;23.13;35.36